sensor_id;sensor_type;location;lat;lon;timestamp;P1;durP1;ratioP1;P2;durP2;ratioP2
10637;SDS011;47007;49.252;8.904;2023-03-25T00:00:09;1.08;;;0.10;;
10637;SDS011;47007;49.252;8.904;2023-03-25T00:00:57;0.70;;;0.20;;
10637;SDS011;47007;49.252;8.904;2023-03-25T00:01:40;3.53;;;0.25;;
10637;SDS011;47007;49.252;8.904;2023-03-25T00:02:22;1.23;;;0.20;;
10637;SDS011;47007;49.252;8.904;2023-03-25T00:03:04;1.25;;;0.30;;
10637;SDS011;47007;49.252;8.904;2023-03-25T00:03:46;2.35;;;0.20;;
10637;SDS011;47007;49.252;8.904;2023-03-25T00:04:30;1.60;;;0.32;;
10637;SDS011;47007;49.252;8.904;2023-03-25T00:05:16;1.90;;;0.28;;
10637;SDS011;47007;49.252;8.904;2023-03-25T00:06:00;1.73;;;0.20;;
10637;SDS011;47007;49.252;8.904;2023-03-25T00:06:42;0.45;;;0.25;;
10637;SDS011;47007;49.252;8.904;2023-03-25T00:07:24;1.52;;;0.20;;
10637;SDS011;47007;49.252;8.904;2023-03-25T00:08:06;1.38;;;0.40;;
10637;SDS011;47007;49.252;8.904;2023-03-25T00:08:47;1.77;;;0.30;;
10637;SDS011;47007;49.252;8.904;2023-03-25T00:09:29;1.35;;;0.22;;
10637;SDS011;47007;49.252;8.904;2023-03-25T00:10:11;1.02;;;0.20;;
10637;SDS011;47007;49.252;8.904;2023-03-25T00:10:55;1.52;;;0.28;;
10637;SDS011;47007;49.252;8.904;2023-03-25T00:11:39;0.98;;;0.38;;
10637;SDS011;47007;49.252;8.904;2023-03-25T00:12:20;0.70;;;0.20;;
10637;SDS011;47007;49.252;8.904;2023-03-25T00:13:02;1.70;;;0.30;;
10637;SDS011;47007;49.252;8.904;2023-03-25T00:13:46;1.77;;;0.30;;
10637;SDS011;47007;49.252;8.904;2023-03-25T00:14:30;1.33;;;0.20;;
10637;SDS011;47007;49.252;8.904;2023-03-25T00:15:13;1.35;;;0.10;;
10637;SDS011;47007;49.252;8.904;2023-03-25T00:15:56;1.48;;;0.65;;
10637;SDS011;47007;49.252;8.904;2023-03-25T00:16:39;1.80;;;0.32;;
10637;SDS011;47007;49.252;8.904;2023-03-25T00:17:21;1.75;;;0.30;;
10637;SDS011;47007;49.252;8.904;2023-03-25T00:18:04;0.90;;;0.15;;
10637;SDS011;47007;49.252;8.904;2023-03-25T00:18:45;0.43;;;0.10;;
10637;SDS011;47007;49.252;8.904;2023-03-25T00:19:28;1.75;;;0.20;;
10637;SDS011;47007;49.252;8.904;2023-03-25T00:20:10;0.45;;;0.20;;
10637;SDS011;47007;49.252;8.904;2023-03-25T00:20:52;1.77;;;0.38;;
10637;SDS011;47007;49.252;8.904;2023-03-25T00:21:33;1.05;;;0.20;;
10637;SDS011;47007;49.252;8.904;2023-03-25T00:22:18;1.85;;;0.35;;
10637;SDS011;47007;49.252;8.904;2023-03-25T00:23:00;0.85;;;0.20;;
10637;SDS011;47007;49.252;8.904;2023-03-25T00:23:41;1.38;;;0.20;;
10637;SDS011;47007;49.252;8.904;2023-03-25T00:24:23;0.35;;;0.20;;
10637;SDS011;47007;49.252;8.904;2023-03-25T00:25:06;2.10;;;0.20;;
10637;SDS011;47007;49.252;8.904;2023-03-25T00:25:52;1.15;;;0.10;;
10637;SDS011;47007;49.252;8.904;2023-03-25T00:26:36;1.00;;;0.17;;
10637;SDS011;47007;49.252;8.904;2023-03-25T00:27:23;2.05;;;0.10;;
10637;SDS011;47007;49.252;8.904;2023-03-25T00:28:04;1.85;;;0.20;;
10637;SDS011;47007;49.252;8.904;2023-03-25T00:28:46;2.38;;;0.40;;
10637;SDS011;47007;49.252;8.904;2023-03-25T00:29:28;2.63;;;0.28;;
10637;SDS011;47007;49.252;8.904;2023-03-25T00:30:10;2.72;;;0.30;;
10637;SDS011;47007;49.252;8.904;2023-03-25T00:30:52;1.63;;;0.20;;
10637;SDS011;47007;49.252;8.904;2023-03-25T00:31:34;1.52;;;0.20;;
10637;SDS011;47007;49.252;8.904;2023-03-25T00:32:16;2.75;;;0.20;;
10637;SDS011;47007;49.252;8.904;2023-03-25T00:32:57;2.65;;;0.20;;
10637;SDS011;47007;49.252;8.904;2023-03-25T00:33:42;0.77;;;0.30;;
10637;SDS011;47007;49.252;8.904;2023-03-25T00:34:24;1.10;;;0.20;;
10637;SDS011;47007;49.252;8.904;2023-03-25T00:35:06;0.65;;;0.20;;
10637;SDS011;47007;49.252;8.904;2023-03-25T00:35:50;0.40;;;0.20;;
10637;SDS011;47007;49.252;8.904;2023-03-25T00:36:35;1.13;;;0.20;;
10637;SDS011;47007;49.252;8.904;2023-03-25T00:37:17;1.88;;;0.28;;
10637;SDS011;47007;49.252;8.904;2023-03-25T00:38:02;0.98;;;0.13;;
10637;SDS011;47007;49.252;8.904;2023-03-25T00:38:48;0.73;;;0.30;;
10637;SDS011;47007;49.252;8.904;2023-03-25T00:39:30;2.08;;;0.30;;
10637;SDS011;47007;49.252;8.904;2023-03-25T00:40:12;1.23;;;0.20;;
10637;SDS011;47007;49.252;8.904;2023-03-25T00:40:54;1.02;;;0.20;;
10637;SDS011;47007;49.252;8.904;2023-03-25T00:41:36;1.85;;;0.28;;
10637;SDS011;47007;49.252;8.904;2023-03-25T00:42:18;1.35;;;0.20;;
10637;SDS011;47007;49.252;8.904;2023-03-25T00:43:06;0.55;;;0.15;;
10637;SDS011;47007;49.252;8.904;2023-03-25T00:43:48;0.85;;;0.40;;
10637;SDS011;47007;49.252;8.904;2023-03-25T00:44:33;2.78;;;0.20;;
10637;SDS011;47007;49.252;8.904;2023-03-25T00:45:15;0.70;;;0.20;;
10637;SDS011;47007;49.252;8.904;2023-03-25T00:45:57;0.40;;;0.10;;
10637;SDS011;47007;49.252;8.904;2023-03-25T00:46:39;1.27;;;0.20;;
10637;SDS011;47007;49.252;8.904;2023-03-25T00:47:21;0.70;;;0.17;;
10637;SDS011;47007;49.252;8.904;2023-03-25T00:48:03;0.60;;;0.20;;
10637;SDS011;47007;49.252;8.904;2023-03-25T00:48:48;1.95;;;0.25;;
10637;SDS011;47007;49.252;8.904;2023-03-25T00:49:30;0.25;;;0.10;;
10637;SDS011;47007;49.252;8.904;2023-03-25T00:50:11;1.75;;;0.25;;
10637;SDS011;47007;49.252;8.904;2023-03-25T00:50:54;0.98;;;0.30;;
10637;SDS011;47007;49.252;8.904;2023-03-25T00:51:36;2.15;;;0.30;;
10637;SDS011;47007;49.252;8.904;2023-03-25T00:52:33;1.90;;;0.52;;
10637;SDS011;47007;49.252;8.904;2023-03-25T00:53:15;1.45;;;0.30;;
10637;SDS011;47007;49.252;8.904;2023-03-25T00:53:57;0.80;;;0.20;;
10637;SDS011;47007;49.252;8.904;2023-03-25T00:54:43;1.50;;;0.20;;
10637;SDS011;47007;49.252;8.904;2023-03-25T00:55:26;2.10;;;0.55;;
10637;SDS011;47007;49.252;8.904;2023-03-25T00:56:07;1.45;;;0.20;;
10637;SDS011;47007;49.252;8.904;2023-03-25T00:56:50;1.63;;;0.32;;
10637;SDS011;47007;49.252;8.904;2023-03-25T00:57:33;1.50;;;0.22;;
10637;SDS011;47007;49.252;8.904;2023-03-25T00:58:15;1.70;;;0.20;;
10637;SDS011;47007;49.252;8.904;2023-03-25T00:58:56;1.00;;;0.22;;
10637;SDS011;47007;49.252;8.904;2023-03-25T00:59:39;1.17;;;0.35;;
10637;SDS011;47007;49.252;8.904;2023-03-25T01:00:21;0.70;;;0.20;;
10637;SDS011;47007;49.252;8.904;2023-03-25T01:01:09;0.63;;;0.30;;
10637;SDS011;47007;49.252;8.904;2023-03-25T01:01:56;0.55;;;0.20;;
10637;SDS011;47007;49.252;8.904;2023-03-25T01:02:39;0.77;;;0.22;;
10637;SDS011;47007;49.252;8.904;2023-03-25T01:03:21;2.00;;;0.40;;
10637;SDS011;47007;49.252;8.904;2023-03-25T01:04:04;1.83;;;0.50;;
10637;SDS011;47007;49.252;8.904;2023-03-25T01:04:52;2.95;;;0.50;;
10637;SDS011;47007;49.252;8.904;2023-03-25T01:05:35;2.53;;;0.60;;
10637;SDS011;47007;49.252;8.904;2023-03-25T01:06:17;3.88;;;1.60;;
10637;SDS011;47007;49.252;8.904;2023-03-25T01:07:01;3.30;;;1.20;;
10637;SDS011;47007;49.252;8.904;2023-03-25T01:07:43;1.48;;;0.70;;
10637;SDS011;47007;49.252;8.904;2023-03-25T01:08:25;2.63;;;1.02;;
10637;SDS011;47007;49.252;8.904;2023-03-25T01:09:11;2.95;;;0.95;;
10637;SDS011;47007;49.252;8.904;2023-03-25T01:09:55;2.40;;;0.80;;
10637;SDS011;47007;49.252;8.904;2023-03-25T01:10:37;1.98;;;0.57;;
10637;SDS011;47007;49.252;8.904;2023-03-25T01:11:20;1.75;;;0.50;;
10637;SDS011;47007;49.252;8.904;2023-03-25T01:12:03;2.33;;;0.80;;
10637;SDS011;47007;49.252;8.904;2023-03-25T01:12:45;1.10;;;0.80;;
10637;SDS011;47007;49.252;8.904;2023-03-25T01:13:27;3.08;;;0.68;;
10637;SDS011;47007;49.252;8.904;2023-03-25T01:14:16;1.77;;;0.73;;
10637;SDS011;47007;49.252;8.904;2023-03-25T01:15:00;2.53;;;0.50;;
10637;SDS011;47007;49.252;8.904;2023-03-25T01:15:42;2.03;;;0.57;;
10637;SDS011;47007;49.252;8.904;2023-03-25T01:16:23;1.83;;;0.73;;
10637;SDS011;47007;49.252;8.904;2023-03-25T01:17:06;1.13;;;0.50;;
10637;SDS011;47007;49.252;8.904;2023-03-25T01:17:48;1.55;;;0.40;;
10637;SDS011;47007;49.252;8.904;2023-03-25T01:18:30;1.58;;;0.30;;
10637;SDS011;47007;49.252;8.904;2023-03-25T01:19:15;1.50;;;0.63;;
10637;SDS011;47007;49.252;8.904;2023-03-25T01:19:56;3.00;;;1.70;;
10637;SDS011;47007;49.252;8.904;2023-03-25T01:20:38;3.17;;;1.27;;
10637;SDS011;47007;49.252;8.904;2023-03-25T01:21:20;4.20;;;1.77;;
10637;SDS011;47007;49.252;8.904;2023-03-25T01:22:03;3.25;;;1.63;;
10637;SDS011;47007;49.252;8.904;2023-03-25T01:22:45;3.25;;;1.55;;
10637;SDS011;47007;49.252;8.904;2023-03-25T01:23:27;2.78;;;1.48;;
10637;SDS011;47007;49.252;8.904;2023-03-25T01:24:09;2.50;;;1.10;;
10637;SDS011;47007;49.252;8.904;2023-03-25T01:24:53;1.50;;;0.45;;
10637;SDS011;47007;49.252;8.904;2023-03-25T01:25:35;2.80;;;0.70;;
10637;SDS011;47007;49.252;8.904;2023-03-25T01:26:17;0.90;;;0.57;;
10637;SDS011;47007;49.252;8.904;2023-03-25T01:26:59;3.10;;;0.60;;
10637;SDS011;47007;49.252;8.904;2023-03-25T01:27:42;2.35;;;0.60;;
10637;SDS011;47007;49.252;8.904;2023-03-25T01:28:24;2.47;;;0.50;;
10637;SDS011;47007;49.252;8.904;2023-03-25T01:29:06;1.33;;;0.43;;
10637;SDS011;47007;49.252;8.904;2023-03-25T01:29:48;2.22;;;0.60;;
10637;SDS011;47007;49.252;8.904;2023-03-25T01:30:30;2.45;;;0.30;;
10637;SDS011;47007;49.252;8.904;2023-03-25T01:31:13;0.90;;;0.20;;
10637;SDS011;47007;49.252;8.904;2023-03-25T01:31:56;1.95;;;0.40;;
10637;SDS011;47007;49.252;8.904;2023-03-25T01:32:38;3.03;;;0.57;;
10637;SDS011;47007;49.252;8.904;2023-03-25T01:33:20;1.45;;;0.50;;
10637;SDS011;47007;49.252;8.904;2023-03-25T01:34:02;1.25;;;0.50;;
10637;SDS011;47007;49.252;8.904;2023-03-25T01:34:43;1.42;;;0.55;;
10637;SDS011;47007;49.252;8.904;2023-03-25T01:35:27;0.95;;;0.30;;
10637;SDS011;47007;49.252;8.904;2023-03-25T01:36:09;1.20;;;0.40;;
10637;SDS011;47007;49.252;8.904;2023-03-25T01:36:53;1.23;;;0.30;;
10637;SDS011;47007;49.252;8.904;2023-03-25T01:37:35;0.88;;;0.30;;
10637;SDS011;47007;49.252;8.904;2023-03-25T01:38:19;1.65;;;0.35;;
10637;SDS011;47007;49.252;8.904;2023-03-25T01:39:02;3.42;;;0.57;;
10637;SDS011;47007;49.252;8.904;2023-03-25T01:39:46;0.85;;;0.20;;
10637;SDS011;47007;49.252;8.904;2023-03-25T01:40:27;3.05;;;0.60;;
10637;SDS011;47007;49.252;8.904;2023-03-25T01:41:09;2.08;;;0.30;;
10637;SDS011;47007;49.252;8.904;2023-03-25T01:41:51;1.60;;;0.43;;
10637;SDS011;47007;49.252;8.904;2023-03-25T01:42:35;3.22;;;0.52;;
10637;SDS011;47007;49.252;8.904;2023-03-25T01:43:17;2.35;;;0.30;;
10637;SDS011;47007;49.252;8.904;2023-03-25T01:45:10;2.40;;;0.40;;
10637;SDS011;47007;49.252;8.904;2023-03-25T01:45:57;1.60;;;0.20;;
10637;SDS011;47007;49.252;8.904;2023-03-25T01:46:39;1.42;;;0.30;;
10637;SDS011;47007;49.252;8.904;2023-03-25T01:47:27;1.77;;;0.30;;
10637;SDS011;47007;49.252;8.904;2023-03-25T01:48:14;2.80;;;0.32;;
10637;SDS011;47007;49.252;8.904;2023-03-25T01:49:00;0.93;;;0.20;;
10637;SDS011;47007;49.252;8.904;2023-03-25T01:49:45;2.03;;;0.22;;
10637;SDS011;47007;49.252;8.904;2023-03-25T01:50:27;1.58;;;0.30;;
10637;SDS011;47007;49.252;8.904;2023-03-25T01:51:20;3.28;;;0.30;;
10637;SDS011;47007;49.252;8.904;2023-03-25T01:52:08;0.90;;;0.25;;
10637;SDS011;47007;49.252;8.904;2023-03-25T01:52:57;1.33;;;0.50;;
10637;SDS011;47007;49.252;8.904;2023-03-25T01:53:42;1.52;;;0.30;;
10637;SDS011;47007;49.252;8.904;2023-03-25T01:54:24;1.30;;;0.22;;
10637;SDS011;47007;49.252;8.904;2023-03-25T01:55:08;1.63;;;0.32;;
10637;SDS011;47007;49.252;8.904;2023-03-25T01:55:50;2.55;;;0.30;;
10637;SDS011;47007;49.252;8.904;2023-03-25T01:56:34;1.83;;;0.47;;
10637;SDS011;47007;49.252;8.904;2023-03-25T01:57:19;1.88;;;0.28;;
10637;SDS011;47007;49.252;8.904;2023-03-25T01:58:04;1.13;;;0.20;;
10637;SDS011;47007;49.252;8.904;2023-03-25T01:58:59;2.95;;;0.40;;
10637;SDS011;47007;49.252;8.904;2023-03-25T01:59:43;0.95;;;0.35;;
10637;SDS011;47007;49.252;8.904;2023-03-25T02:00:25;1.38;;;0.20;;
10637;SDS011;47007;49.252;8.904;2023-03-25T02:01:07;0.82;;;0.10;;
10637;SDS011;47007;49.252;8.904;2023-03-25T02:01:54;1.27;;;0.32;;
10637;SDS011;47007;49.252;8.904;2023-03-25T02:02:39;2.25;;;0.30;;
10637;SDS011;47007;49.252;8.904;2023-03-25T02:03:23;1.85;;;0.30;;
10637;SDS011;47007;49.252;8.904;2023-03-25T02:04:05;2.63;;;0.20;;
10637;SDS011;47007;49.252;8.904;2023-03-25T02:04:54;1.42;;;0.20;;
10637;SDS011;47007;49.252;8.904;2023-03-25T02:06:26;1.08;;;0.20;;
10637;SDS011;47007;49.252;8.904;2023-03-25T02:07:13;1.52;;;0.22;;
10637;SDS011;47007;49.252;8.904;2023-03-25T02:07:56;2.30;;;0.20;;
10637;SDS011;47007;49.252;8.904;2023-03-25T02:08:39;3.08;;;0.30;;
10637;SDS011;47007;49.252;8.904;2023-03-25T02:09:23;2.60;;;0.40;;
10637;SDS011;47007;49.252;8.904;2023-03-25T02:10:07;1.08;;;0.25;;
10637;SDS011;47007;49.252;8.904;2023-03-25T02:10:50;0.80;;;0.30;;
10637;SDS011;47007;49.252;8.904;2023-03-25T02:11:33;0.70;;;0.20;;
10637;SDS011;47007;49.252;8.904;2023-03-25T02:12:16;1.27;;;0.20;;
10637;SDS011;47007;49.252;8.904;2023-03-25T02:12:57;1.67;;;0.40;;
10637;SDS011;47007;49.252;8.904;2023-03-25T02:13:39;3.22;;;1.52;;
10637;SDS011;47007;49.252;8.904;2023-03-25T02:14:25;1.95;;;0.40;;
10637;SDS011;47007;49.252;8.904;2023-03-25T02:15:09;2.42;;;0.70;;
10637;SDS011;47007;49.252;8.904;2023-03-25T02:16:09;2.47;;;1.23;;
10637;SDS011;47007;49.252;8.904;2023-03-25T02:28:52;1.20;;;0.20;;
10637;SDS011;47007;49.252;8.904;2023-03-25T02:30:08;1.13;;;0.10;;
10637;SDS011;47007;49.252;8.904;2023-03-25T02:31:07;0.55;;;0.10;;
10637;SDS011;47007;49.252;8.904;2023-03-25T02:32:05;0.85;;;0.10;;
10637;SDS011;47007;49.252;8.904;2023-03-25T02:35:39;0.32;;;0.10;;
10637;SDS011;47007;49.252;8.904;2023-03-25T02:36:38;0.25;;;0.20;;
10637;SDS011;47007;49.252;8.904;2023-03-25T02:38:52;2.25;;;1.42;;
10637;SDS011;47007;49.252;8.904;2023-03-25T02:41:31;3.45;;;3.15;;
10637;SDS011;47007;49.252;8.904;2023-03-25T02:42:03;2.05;;;1.45;;
10637;SDS011;47007;49.252;8.904;2023-03-25T02:43:00;2.65;;;2.00;;
10637;SDS011;47007;49.252;8.904;2023-03-25T02:44:10;6.22;;;5.65;;
10637;SDS011;47007;49.252;8.904;2023-03-25T02:45:04;3.58;;;2.88;;
10637;SDS011;47007;49.252;8.904;2023-03-25T02:45:53;13.40;;;11.43;;
10637;SDS011;47007;49.252;8.904;2023-03-25T02:46:40;4.97;;;3.45;;
10637;SDS011;47007;49.252;8.904;2023-03-25T02:47:30;4.70;;;4.28;;
10637;SDS011;47007;49.252;8.904;2023-03-25T02:48:18;5.57;;;5.07;;
10637;SDS011;47007;49.252;8.904;2023-03-25T02:49:04;4.88;;;4.40;;
10637;SDS011;47007;49.252;8.904;2023-03-25T02:49:53;6.55;;;5.68;;
10637;SDS011;47007;49.252;8.904;2023-03-25T02:50:45;14.43;;;12.20;;
10637;SDS011;47007;49.252;8.904;2023-03-25T02:52:48;2.97;;;1.50;;
10637;SDS011;47007;49.252;8.904;2023-03-25T02:53:34;4.30;;;3.90;;
10637;SDS011;47007;49.252;8.904;2023-03-25T02:54:19;2.58;;;2.25;;
10637;SDS011;47007;49.252;8.904;2023-03-25T02:55:05;2.00;;;1.48;;
10637;SDS011;47007;49.252;8.904;2023-03-25T02:55:50;1.55;;;0.60;;
10637;SDS011;47007;49.252;8.904;2023-03-25T02:56:36;0.52;;;0.50;;
10637;SDS011;47007;49.252;8.904;2023-03-25T02:57:19;1.55;;;0.57;;
10637;SDS011;47007;49.252;8.904;2023-03-25T02:58:03;2.35;;;0.50;;
10637;SDS011;47007;49.252;8.904;2023-03-25T02:58:49;0.47;;;0.10;;
10637;SDS011;47007;49.252;8.904;2023-03-25T02:59:35;0.75;;;0.10;;
10637;SDS011;47007;49.252;8.904;2023-03-25T03:00:23;0.85;;;0.10;;
10637;SDS011;47007;49.252;8.904;2023-03-25T03:01:08;0.88;;;0.10;;
10637;SDS011;47007;49.252;8.904;2023-03-25T03:01:53;0.50;;;0.10;;
10637;SDS011;47007;49.252;8.904;2023-03-25T03:02:39;0.20;;;0.10;;
10637;SDS011;47007;49.252;8.904;2023-03-25T03:03:44;0.77;;;0.10;;
10637;SDS011;47007;49.252;8.904;2023-03-25T03:04:26;0.30;;;0.00;;
10637;SDS011;47007;49.252;8.904;2023-03-25T03:05:22;0.10;;;0.10;;
10637;SDS011;47007;49.252;8.904;2023-03-25T03:06:04;0.52;;;0.10;;
10637;SDS011;47007;49.252;8.904;2023-03-25T03:06:48;0.75;;;0.15;;
10637;SDS011;47007;49.252;8.904;2023-03-25T03:07:34;0.98;;;0.10;;
10637;SDS011;47007;49.252;8.904;2023-03-25T03:09:24;0.40;;;0.10;;
10637;SDS011;47007;49.252;8.904;2023-03-25T03:10:22;0.77;;;0.10;;
10637;SDS011;47007;49.252;8.904;2023-03-25T03:15:45;2.50;;;0.22;;
10637;SDS011;47007;49.252;8.904;2023-03-25T03:16:38;0.60;;;0.15;;
10637;SDS011;47007;49.252;8.904;2023-03-25T03:18:32;0.28;;;0.10;;
10637;SDS011;47007;49.252;8.904;2023-03-25T03:19:40;1.35;;;0.10;;
10637;SDS011;47007;49.252;8.904;2023-03-25T03:20:33;1.00;;;0.10;;
10637;SDS011;47007;49.252;8.904;2023-03-25T03:21:22;0.57;;;0.17;;
10637;SDS011;47007;49.252;8.904;2023-03-25T03:23:12;0.75;;;0.10;;
10637;SDS011;47007;49.252;8.904;2023-03-25T03:24:09;0.25;;;0.20;;
10637;SDS011;47007;49.252;8.904;2023-03-25T03:25:46;0.20;;;0.05;;
10637;SDS011;47007;49.252;8.904;2023-03-25T03:26:37;1.35;;;0.22;;
10637;SDS011;47007;49.252;8.904;2023-03-25T03:27:27;0.32;;;0.10;;
10637;SDS011;47007;49.252;8.904;2023-03-25T03:28:23;0.55;;;0.20;;
10637;SDS011;47007;49.252;8.904;2023-03-25T03:29:14;0.40;;;0.10;;
10637;SDS011;47007;49.252;8.904;2023-03-25T03:31:54;0.80;;;0.10;;
10637;SDS011;47007;49.252;8.904;2023-03-25T03:33:48;0.25;;;0.08;;
10637;SDS011;47007;49.252;8.904;2023-03-25T03:34:52;0.98;;;0.10;;
10637;SDS011;47007;49.252;8.904;2023-03-25T03:35:42;0.40;;;0.08;;
10637;SDS011;47007;49.252;8.904;2023-03-25T03:36:44;1.17;;;0.10;;
10637;SDS011;47007;49.252;8.904;2023-03-25T03:37:34;1.02;;;0.10;;
10637;SDS011;47007;49.252;8.904;2023-03-25T03:38:21;0.38;;;0.10;;
10637;SDS011;47007;49.252;8.904;2023-03-25T03:39:08;0.57;;;0.10;;
10637;SDS011;47007;49.252;8.904;2023-03-25T03:39:57;0.63;;;0.20;;
10637;SDS011;47007;49.252;8.904;2023-03-25T03:40:40;0.82;;;0.20;;
10637;SDS011;47007;49.252;8.904;2023-03-25T03:41:25;0.13;;;0.10;;
10637;SDS011;47007;49.252;8.904;2023-03-25T03:42:19;0.85;;;0.10;;
10637;SDS011;47007;49.252;8.904;2023-03-25T03:43:07;0.93;;;0.10;;
10637;SDS011;47007;49.252;8.904;2023-03-25T03:43:57;0.75;;;0.22;;
10637;SDS011;47007;49.252;8.904;2023-03-25T03:44:44;0.52;;;0.10;;
10637;SDS011;47007;49.252;8.904;2023-03-25T03:45:34;0.63;;;0.20;;
10637;SDS011;47007;49.252;8.904;2023-03-25T03:46:27;1.02;;;0.10;;
10637;SDS011;47007;49.252;8.904;2023-03-25T03:47:15;0.82;;;0.10;;
10637;SDS011;47007;49.252;8.904;2023-03-25T03:48:03;0.10;;;0.00;;
10637;SDS011;47007;49.252;8.904;2023-03-25T03:48:51;1.58;;;0.20;;
10637;SDS011;47007;49.252;8.904;2023-03-25T03:49:44;1.05;;;0.10;;
10637;SDS011;47007;49.252;8.904;2023-03-25T03:50:30;2.05;;;0.20;;
10637;SDS011;47007;49.252;8.904;2023-03-25T03:51:18;0.40;;;0.20;;
10637;SDS011;47007;49.252;8.904;2023-03-25T03:52:12;1.88;;;0.20;;
10637;SDS011;47007;49.252;8.904;2023-03-25T03:53:06;0.50;;;0.10;;
10637;SDS011;47007;49.252;8.904;2023-03-25T03:53:55;1.27;;;0.10;;
10637;SDS011;47007;49.252;8.904;2023-03-25T03:54:44;0.30;;;0.10;;
10637;SDS011;47007;49.252;8.904;2023-03-25T03:55:34;0.63;;;0.10;;
10637;SDS011;47007;49.252;8.904;2023-03-25T03:56:27;0.30;;;0.10;;
10637;SDS011;47007;49.252;8.904;2023-03-25T03:58:01;0.75;;;0.10;;
10637;SDS011;47007;49.252;8.904;2023-03-25T03:58:46;0.73;;;0.10;;
10637;SDS011;47007;49.252;8.904;2023-03-25T04:00:16;0.55;;;0.15;;
10637;SDS011;47007;49.252;8.904;2023-03-25T04:01:55;0.47;;;0.10;;
10637;SDS011;47007;49.252;8.904;2023-03-25T04:02:44;0.98;;;0.20;;
10637;SDS011;47007;49.252;8.904;2023-03-25T04:03:33;1.13;;;0.10;;
10637;SDS011;47007;49.252;8.904;2023-03-25T04:04:21;0.90;;;0.10;;
10637;SDS011;47007;49.252;8.904;2023-03-25T04:05:08;0.68;;;0.10;;
10637;SDS011;47007;49.252;8.904;2023-03-25T04:05:54;0.65;;;0.10;;
10637;SDS011;47007;49.252;8.904;2023-03-25T04:06:46;1.05;;;0.10;;
10637;SDS011;47007;49.252;8.904;2023-03-25T04:07:44;1.20;;;0.17;;
10637;SDS011;47007;49.252;8.904;2023-03-25T04:11:09;0.85;;;0.10;;
10637;SDS011;47007;49.252;8.904;2023-03-25T04:11:52;0.55;;;0.10;;
10637;SDS011;47007;49.252;8.904;2023-03-25T04:12:41;0.20;;;0.10;;
10637;SDS011;47007;49.252;8.904;2023-03-25T04:13:27;0.10;;;0.10;;
10637;SDS011;47007;49.252;8.904;2023-03-25T04:14:14;1.45;;;0.10;;
10637;SDS011;47007;49.252;8.904;2023-03-25T04:14:56;0.50;;;0.10;;
10637;SDS011;47007;49.252;8.904;2023-03-25T04:15:41;1.08;;;0.10;;
10637;SDS011;47007;49.252;8.904;2023-03-25T04:16:23;0.28;;;0.10;;
10637;SDS011;47007;49.252;8.904;2023-03-25T04:17:05;0.90;;;0.10;;
10637;SDS011;47007;49.252;8.904;2023-03-25T04:17:47;0.38;;;0.10;;
10637;SDS011;47007;49.252;8.904;2023-03-25T04:18:29;0.20;;;0.03;;
10637;SDS011;47007;49.252;8.904;2023-03-25T04:19:14;0.75;;;0.10;;
10637;SDS011;47007;49.252;8.904;2023-03-25T04:19:59;0.50;;;0.10;;
10637;SDS011;47007;49.252;8.904;2023-03-25T04:20:42;0.63;;;0.15;;
10637;SDS011;47007;49.252;8.904;2023-03-25T04:21:25;0.55;;;0.17;;
10637;SDS011;47007;49.252;8.904;2023-03-25T04:22:10;0.60;;;0.20;;
10637;SDS011;47007;49.252;8.904;2023-03-25T04:22:54;0.45;;;0.10;;
10637;SDS011;47007;49.252;8.904;2023-03-25T04:23:36;0.30;;;0.20;;
10637;SDS011;47007;49.252;8.904;2023-03-25T04:24:19;0.95;;;0.10;;
10637;SDS011;47007;49.252;8.904;2023-03-25T04:25:01;0.28;;;0.10;;
10637;SDS011;47007;49.252;8.904;2023-03-25T04:25:43;0.22;;;0.20;;
10637;SDS011;47007;49.252;8.904;2023-03-25T04:26:28;0.77;;;0.10;;
10637;SDS011;47007;49.252;8.904;2023-03-25T04:27:15;0.80;;;0.15;;
10637;SDS011;47007;49.252;8.904;2023-03-25T04:27:57;1.13;;;0.20;;
10637;SDS011;47007;49.252;8.904;2023-03-25T04:28:40;0.50;;;0.28;;
10637;SDS011;47007;49.252;8.904;2023-03-25T04:29:24;1.23;;;0.25;;
10637;SDS011;47007;49.252;8.904;2023-03-25T04:30:06;1.02;;;0.15;;
10637;SDS011;47007;49.252;8.904;2023-03-25T04:30:49;0.28;;;0.10;;
10637;SDS011;47007;49.252;8.904;2023-03-25T04:31:36;0.73;;;0.20;;
10637;SDS011;47007;49.252;8.904;2023-03-25T04:32:18;0.68;;;0.20;;
10637;SDS011;47007;49.252;8.904;2023-03-25T04:32:59;0.90;;;0.10;;
10637;SDS011;47007;49.252;8.904;2023-03-25T04:33:42;1.95;;;0.40;;
10637;SDS011;47007;49.252;8.904;2023-03-25T04:34:28;2.35;;;0.50;;
10637;SDS011;47007;49.252;8.904;2023-03-25T04:35:10;1.45;;;0.10;;
10637;SDS011;47007;49.252;8.904;2023-03-25T04:35:53;1.42;;;0.10;;
10637;SDS011;47007;49.252;8.904;2023-03-25T04:36:35;1.25;;;0.17;;
10637;SDS011;47007;49.252;8.904;2023-03-25T04:37:23;0.85;;;0.20;;
10637;SDS011;47007;49.252;8.904;2023-03-25T04:38:06;0.80;;;0.10;;
10637;SDS011;47007;49.252;8.904;2023-03-25T04:38:48;0.52;;;0.10;;
10637;SDS011;47007;49.252;8.904;2023-03-25T04:39:30;1.17;;;0.10;;
10637;SDS011;47007;49.252;8.904;2023-03-25T04:40:12;1.30;;;0.20;;
10637;SDS011;47007;49.252;8.904;2023-03-25T04:40:56;0.47;;;0.10;;
10637;SDS011;47007;49.252;8.904;2023-03-25T04:41:38;1.48;;;0.20;;
10637;SDS011;47007;49.252;8.904;2023-03-25T04:42:21;1.05;;;0.20;;
10637;SDS011;47007;49.252;8.904;2023-03-25T04:43:06;0.30;;;0.10;;
10637;SDS011;47007;49.252;8.904;2023-03-25T04:43:47;0.88;;;0.30;;
10637;SDS011;47007;49.252;8.904;2023-03-25T04:44:29;0.90;;;0.30;;
10637;SDS011;47007;49.252;8.904;2023-03-25T04:45:14;0.90;;;0.20;;
10637;SDS011;47007;49.252;8.904;2023-03-25T04:45:59;0.68;;;0.20;;
10637;SDS011;47007;49.252;8.904;2023-03-25T04:46:43;1.75;;;0.25;;
10637;SDS011;47007;49.252;8.904;2023-03-25T04:47:24;1.83;;;0.20;;
10637;SDS011;47007;49.252;8.904;2023-03-25T04:48:07;0.90;;;0.10;;
10637;SDS011;47007;49.252;8.904;2023-03-25T04:49:00;0.80;;;0.10;;
10637;SDS011;47007;49.252;8.904;2023-03-25T04:49:46;1.02;;;0.10;;
10637;SDS011;47007;49.252;8.904;2023-03-25T04:50:28;1.08;;;0.20;;
10637;SDS011;47007;49.252;8.904;2023-03-25T04:51:11;1.10;;;0.10;;
10637;SDS011;47007;49.252;8.904;2023-03-25T04:51:53;1.13;;;0.20;;
10637;SDS011;47007;49.252;8.904;2023-03-25T04:52:36;0.68;;;0.13;;
10637;SDS011;47007;49.252;8.904;2023-03-25T04:53:20;2.67;;;0.30;;
10637;SDS011;47007;49.252;8.904;2023-03-25T04:54:02;1.02;;;0.22;;
10637;SDS011;47007;49.252;8.904;2023-03-25T04:54:44;1.60;;;0.13;;
10637;SDS011;47007;49.252;8.904;2023-03-25T04:55:26;1.50;;;0.15;;
10637;SDS011;47007;49.252;8.904;2023-03-25T04:56:14;0.98;;;0.17;;
10637;SDS011;47007;49.252;8.904;2023-03-25T04:56:57;1.55;;;0.28;;
10637;SDS011;47007;49.252;8.904;2023-03-25T04:57:39;1.42;;;0.35;;
10637;SDS011;47007;49.252;8.904;2023-03-25T04:58:21;1.17;;;0.20;;
10637;SDS011;47007;49.252;8.904;2023-03-25T04:59:03;0.95;;;0.25;;
10637;SDS011;47007;49.252;8.904;2023-03-25T04:59:44;1.95;;;0.20;;
10637;SDS011;47007;49.252;8.904;2023-03-25T05:00:26;1.83;;;0.30;;
10637;SDS011;47007;49.252;8.904;2023-03-25T05:01:14;2.65;;;1.08;;
10637;SDS011;47007;49.252;8.904;2023-03-25T05:02:02;2.50;;;0.20;;
10637;SDS011;47007;49.252;8.904;2023-03-25T05:02:47;1.20;;;0.40;;
10637;SDS011;47007;49.252;8.904;2023-03-25T05:03:30;2.85;;;0.30;;
10637;SDS011;47007;49.252;8.904;2023-03-25T05:04:13;0.60;;;0.20;;
10637;SDS011;47007;49.252;8.904;2023-03-25T05:04:57;2.95;;;0.40;;
10637;SDS011;47007;49.252;8.904;2023-03-25T05:05:42;1.23;;;0.20;;
10637;SDS011;47007;49.252;8.904;2023-03-25T05:06:24;2.55;;;0.20;;
10637;SDS011;47007;49.252;8.904;2023-03-25T05:07:06;1.40;;;0.20;;
10637;SDS011;47007;49.252;8.904;2023-03-25T05:07:49;3.40;;;0.95;;
10637;SDS011;47007;49.252;8.904;2023-03-25T05:08:33;0.93;;;0.20;;
10637;SDS011;47007;49.252;8.904;2023-03-25T05:09:16;3.55;;;0.20;;
10637;SDS011;47007;49.252;8.904;2023-03-25T05:10:00;2.53;;;0.47;;